Terminal Aerodrome Forecast
Issued by NWS

Home | Current Version | Previous Version | Text Only | Print | Product List | Glossary On
Versions: 1 2 3 4 5 6 7 8 9 10 11 12 13 14 15
000
FTUS46 KLOX 022340
TAFOXR
TAF
KOXR 022340Z 0300/0324 30011KT P6SM SKC
     FM030300 06006KT P6SM SKC
     FM031000 06012G17KT P6SM SKC
     FM031300 07020G30KT P6SM SKC
     FM031800 03012KT P6SM SKC
     FM032100 29011KT P6SM SKC=

USA.gov is the U.S. government's official web portal to all federal, state and local government web resources and services.